Time;durP1;ratioP1;P1;durP2;ratioP2;P2;SDS_P1;SDS_P2;PMS_P1;PMS_P2;Temp;Humidity;BMP_temperature;BMP_pressure;BME280_temperature;BME280_humidity;BME280_pressure;Samples;Min_cycle;Max_cycle;Signal;HPM_P1;HPM_P2
2021/12/21 00:02:12;;;;;;;5.17;3.80;;;2.10;99.90;;;;;;5110951;28;20174;-49
2021/12/21 00:04:42;;;;;;;10.40;4.90;;;2.10;99.90;;;;;;5102212;28;20198;-50
2021/12/21 00:07:13;;;;;;;7.50;3.70;;;2.10;99.90;;;;;;5104417;29;20206;-51
2021/12/21 00:09:43;;;;;;;5.77;4.37;;;2.10;99.90;;;;;;5120781;29;20193;-50
2021/12/21 00:12:17;;;;;;;9.83;3.70;;;2.10;99.90;;;;;;5120045;29;20193;-52
2021/12/21 00:14:59;;;;;;;5.50;3.80;;;2.10;99.90;;;;;;5113460;28;20462;-51
2021/12/21 00:17:52;;;;;;;11.93;4.17;;;2.10;99.90;;;;;;5106838;29;20430;-50
2021/12/21 00:20:30;;;;;;;10.13;4.20;;;2.10;99.90;;;;;;5101284;29;20434;-51
2021/12/21 00:23:29;;;;;;;12.63;3.97;;;2.20;99.90;;;;;;5119260;29;20472;-50
2021/12/21 00:26:03;;;;;;;6.87;4.73;;;2.20;99.90;;;;;;5121733;28;20470;-50
2021/12/21 00:28:43;;;;;;;7.73;4.10;;;2.20;99.90;;;;;;5102404;29;20806;-50
2021/12/21 00:31:14;;;;;;;10.40;4.10;;;2.20;99.90;;;;;;5101278;29;20441;-49
2021/12/21 00:33:46;;;;;;;6.57;4.27;;;2.20;99.90;;;;;;5114874;28;20452;-49
2021/12/21 00:36:19;;;;;;;4.60;3.70;;;2.20;99.90;;;;;;5115690;28;20209;-49
2021/12/21 00:38:51;;;;;;;11.10;4.33;;;2.20;99.90;;;;;;5101562;29;20882;-49
2021/12/21 00:41:22;;;;;;;7.30;3.90;;;2.20;99.90;;;;;;5119321;29;20441;-50
2021/12/21 00:43:53;;;;;;;5.27;4.57;;;2.20;99.90;;;;;;5113086;29;20453;-50
2021/12/21 00:46:24;;;;;;;6.10;4.47;;;2.10;99.90;;;;;;5116398;28;20978;-50
2021/12/21 00:49:00;;;;;;;6.57;4.70;;;2.20;99.90;;;;;;5119109;29;20430;-50
2021/12/21 00:51:31;;;;;;;7.33;4.03;;;2.10;99.90;;;;;;5113622;28;20446;-50
2021/12/21 00:54:01;;;;;;;3.57;3.27;;;2.10;99.90;;;;;;5117211;29;20453;-49
2021/12/21 00:56:32;;;;;;;3.97;3.23;;;2.10;99.90;;;;;;5120340;28;20202;-49
2021/12/21 00:59:03;;;;;;;3.60;2.53;;;2.10;99.90;;;;;;5122821;28;20210;-49
2021/12/21 01:01:36;;;;;;;3.63;3.40;;;2.00;99.90;;;;;;5117608;28;20187;-49
2021/12/21 01:04:12;;;;;;;4.80;3.60;;;2.10;99.90;;;;;;5106670;29;20473;-50
2021/12/21 01:06:57;;;;;;;3.83;3.33;;;2.00;99.90;;;;;;5103112;28;20697;-50
2021/12/21 01:12:13;;;;;;;6.07;2.80;;;2.10;99.90;;;;;;5125066;29;20442;-51
2021/12/21 01:17:36;;;;;;;8.47;3.77;;;2.10;99.90;;;;;;5114819;29;20931;-50
2021/12/21 01:20:23;;;;;;;7.37;4.30;;;2.10;99.90;;;;;;5118240;29;20453;-49
2021/12/21 01:28:20;;;;;;;7.20;4.30;;;1.90;99.90;;;;;;5115494;29;20453;-50
2021/12/21 01:31:03;;;;;;;7.77;4.80;;;1.90;99.90;;;;;;5107742;29;20445;-50
2021/12/21 01:36:13;;;;;;;5.17;4.53;;;1.80;99.90;;;;;;5118935;28;21028;-50
2021/12/21 01:38:56;;;;;;;8.60;3.77;;;1.80;99.90;;;;;;5122292;28;20210;-50
2021/12/21 01:42:05;;;;;;;11.83;4.70;;;1.80;99.90;;;;;;5116449;29;20493;-50
2021/12/21 01:49:55;;;;;;;10.47;5.00;;;1.70;99.90;;;;;;5118241;29;20446;-50
2021/12/21 01:52:27;;;;;;;8.33;5.30;;;1.70;99.90;;;;;;5114800;28;20439;-49
2021/12/21 01:54:58;;;;;;;8.30;4.80;;;1.70;99.90;;;;;;5123297;28;20285;-50
2021/12/21 01:57:28;;;;;;;10.50;4.50;;;1.70;99.90;;;;;;5120927;29;20941;-51
2021/12/21 01:59:59;;;;;;;6.70;3.43;;;1.70;99.90;;;;;;5104053;29;20230;-50
2021/12/21 02:02:30;;;;;;;4.63;4.23;;;1.80;99.90;;;;;;5116276;28;20194;-50
2021/12/21 02:05:00;;;;;;;8.40;4.83;;;1.80;99.90;;;;;;5116830;28;20289;-50
2021/12/21 02:07:31;;;;;;;6.20;4.20;;;1.80;99.90;;;;;;5117431;29;20197;-51
2021/12/21 02:10:03;;;;;;;8.00;4.50;;;1.80;99.90;;;;;;5117007;29;20202;-50
2021/12/21 02:12:34;;;;;;;10.80;5.10;;;1.80;99.90;;;;;;5097791;29;20199;-49
2021/12/21 02:15:05;;;;;;;9.73;4.70;;;1.70;99.90;;;;;;5120532;28;20468;-51
2021/12/21 02:28:32;;;;;;;10.67;5.70;;;2.00;99.90;;;;;;5148571;28;20452;-50
2021/12/21 02:31:03;;;;;;;11.63;6.47;;;2.00;99.90;;;;;;5142989;28;20288;-52
2021/12/21 02:33:34;;;;;;;8.00;5.73;;;2.00;99.90;;;;;;5149346;28;20495;-51
2021/12/21 02:36:05;;;;;;;16.60;6.23;;;1.90;99.90;;;;;;5143019;28;20475;-52
2021/12/21 02:38:35;;;;;;;10.40;5.53;;;1.90;99.90;;;;;;5144494;28;20465;-50
2021/12/21 02:41:08;;;;;;;20.10;6.90;;;1.90;99.90;;;;;;5134264;28;20217;-50
2021/12/21 02:43:38;;;;;;;8.47;5.77;;;1.90;99.90;;;;;;5148950;28;20235;-50
2021/12/21 02:46:09;;;;;;;9.63;6.40;;;1.80;99.90;;;;;;5142353;28;20461;-53
2021/12/21 02:48:40;;;;;;;13.90;6.10;;;1.80;99.90;;;;;;5130428;28;20182;-50
2021/12/21 02:51:10;;;;;;;9.60;6.33;;;1.80;99.90;;;;;;5143389;28;20433;-50
2021/12/21 02:53:41;;;;;;;11.63;7.10;;;1.80;99.90;;;;;;5146005;28;20190;-50
2021/12/21 02:56:13;;;;;;;9.07;5.97;;;1.80;99.90;;;;;;5140324;28;20608;-52
2021/12/21 02:58:44;;;;;;;13.37;6.40;;;1.80;99.90;;;;;;5150587;28;20213;-50
2021/12/21 03:01:15;;;;;;;10.30;6.17;;;1.80;99.90;;;;;;5141153;28;20433;-50
2021/12/21 03:03:45;;;;;;;12.73;6.80;;;1.80;99.90;;;;;;5129300;28;20178;-50
2021/12/21 03:06:50;;;;;;;9.83;6.20;;;1.80;99.90;;;;;;5142607;28;20818;-53
2021/12/21 03:11:58;;;;;;;10.93;6.23;;;1.90;99.90;;;;;;5141101;28;20425;-53
2021/12/21 03:14:28;;;;;;;10.80;6.90;;;1.90;99.90;;;;;;5135878;28;20440;-51
2021/12/21 03:16:59;;;;;;;22.17;6.67;;;1.90;99.90;;;;;;5145999;28;20460;-50
2021/12/21 03:19:30;;;;;;;14.20;6.30;;;1.80;99.90;;;;;;5132747;28;20202;-52
2021/12/21 03:22:01;;;;;;;9.33;5.60;;;1.80;99.90;;;;;;5139086;28;20433;-51
2021/12/21 03:24:33;;;;;;;10.47;5.93;;;1.70;99.90;;;;;;5125936;28;20260;-51
2021/12/21 03:27:04;;;;;;;11.43;6.73;;;1.70;99.90;;;;;;5128288;28;20991;-50
2021/12/21 03:29:35;;;;;;;17.10;6.27;;;1.80;99.90;;;;;;5121478;28;20449;-48
2021/12/21 03:32:06;;;;;;;13.97;7.27;;;1.80;99.90;;;;;;5140169;28;20472;-52
2021/12/21 03:34:37;;;;;;;12.20;6.40;;;1.80;99.90;;;;;;5140804;28;20476;-51
2021/12/21 03:37:12;;;;;;;13.13;6.63;;;1.80;99.90;;;;;;5128078;28;20469;-49
2021/12/21 03:39:45;;;;;;;15.63;6.80;;;1.70;99.90;;;;;;5140565;28;20205;-53
2021/12/21 03:42:16;;;;;;;14.30;7.47;;;1.70;99.90;;;;;;5143059;28;20465;-50
2021/12/21 03:44:47;;;;;;;10.27;6.83;;;1.70;99.90;;;;;;5136744;28;20988;-50
2021/12/21 03:47:21;;;;;;;9.40;6.97;;;1.60;99.90;;;;;;5137946;28;20181;-52
2021/12/21 03:49:59;;;;;;;19.70;7.43;;;1.60;99.90;;;;;;5124516;28;20428;-51
2021/12/21 03:52:30;;;;;;;16.93;7.70;;;1.60;99.90;;;;;;5142755;28;20432;-50
2021/12/21 03:55:02;;;;;;;12.50;8.20;;;1.60;99.90;;;;;;5124618;28;20487;-50
2021/12/21 03:57:32;;;;;;;13.23;7.60;;;1.60;99.90;;;;;;5134948;28;20173;-49
2021/12/21 04:00:06;;;;;;;14.03;8.17;;;1.50;99.90;;;;;;5139127;28;20528;-50
2021/12/21 04:02:37;;;;;;;21.43;8.50;;;1.50;99.90;;;;;;5140931;28;20173;-50
2021/12/21 04:05:08;;;;;;;15.10;9.30;;;1.50;99.90;;;;;;5121962;28;20807;-50
2021/12/21 04:07:39;;;;;;;11.63;7.80;;;1.40;99.90;;;;;;5144593;28;20539;-50
2021/12/21 04:10:09;;;;;;;12.60;8.73;;;1.40;99.90;;;;;;5142065;28;20433;-51
2021/12/21 04:12:40;;;;;;;16.33;8.37;;;1.40;99.90;;;;;;5118772;28;20184;-50
2021/12/21 04:15:13;;;;;;;11.27;8.13;;;1.30;99.90;;;;;;5139618;28;20198;-50
2021/12/21 04:17:43;;;;;;;11.93;8.60;;;1.40;99.90;;;;;;5120937;28;20186;-51
2021/12/21 04:20:14;;;;;;;9.10;7.30;;;1.40;99.90;;;;;;5136137;28;20968;-50
2021/12/21 04:22:44;;;;;;;10.03;7.80;;;1.40;99.90;;;;;;5128203;28;20181;-51
2021/12/21 04:25:15;;;;;;;11.60;8.77;;;1.50;99.90;;;;;;5066674;28;1332699;-51
2021/12/21 04:27:45;;;;;;;17.93;9.60;;;1.60;99.90;;;;;;5145591;28;20278;-51
2021/12/21 04:30:17;;;;;;;14.30;8.07;;;1.50;99.90;;;;;;5145092;28;20642;-50
2021/12/21 04:32:48;;;;;;;10.77;8.93;;;1.60;99.90;;;;;;5145295;28;20178;-50
2021/12/21 04:35:20;;;;;;;16.50;8.60;;;1.60;99.90;;;;;;5144638;28;20818;-51
2021/12/21 04:37:57;;;;;;;13.70;9.50;;;1.60;99.90;;;;;;5130712;28;20626;-51
2021/12/21 04:40:40;;;;;;;15.90;9.07;;;1.60;99.90;;;;;;5142585;28;20436;-50
2021/12/21 04:43:11;;;;;;;16.23;10.67;;;1.60;99.90;;;;;;5133767;28;20432;-51
2021/12/21 04:45:41;;;;;;;12.00;9.10;;;1.70;99.90;;;;;;5142940;28;20475;-50
2021/12/21 04:48:12;;;;;;;16.33;9.10;;;1.70;99.90;;;;;;5131832;28;20197;-49
2021/12/21 04:50:44;;;;;;;15.73;9.90;;;1.80;99.90;;;;;;5141598;28;20189;-51
2021/12/21 04:53:15;;;;;;;16.60;9.67;;;1.80;99.90;;;;;;5129328;28;20452;-51
2021/12/21 04:55:46;;;;;;;17.70;11.17;;;1.80;99.90;;;;;;5146412;28;20527;-50
2021/12/21 04:58:17;;;;;;;18.90;10.23;;;1.90;99.90;;;;;;5114522;28;20473;-51
2021/12/21 05:00:49;;;;;;;27.90;11.97;;;1.80;99.90;;;;;;5127302;28;20200;-50
2021/12/21 05:03:19;;;;;;;14.43;9.93;;;1.90;99.90;;;;;;5131973;28;20441;-51
2021/12/21 05:05:51;;;;;;;20.23;10.37;;;1.80;99.90;;;;;;5142738;28;20469;-51
2021/12/21 05:08:26;;;;;;;16.90;9.70;;;1.80;99.90;;;;;;5138363;28;20650;-51
2021/12/21 05:11:01;;;;;;;21.40;10.47;;;1.80;99.90;;;;;;5127113;28;20598;-52
2021/12/21 05:13:38;;;;;;;12.03;9.30;;;1.80;99.90;;;;;;5144243;28;21054;-50
2021/12/21 05:16:09;;;;;;;18.43;10.93;;;1.80;99.90;;;;;;5142695;28;20463;-50
2021/12/21 05:18:39;;;;;;;16.03;8.50;;;1.80;99.90;;;;;;5146301;28;21510;-50
2021/12/21 05:21:10;;;;;;;15.90;8.77;;;1.80;99.90;;;;;;5127762;28;20181;-50
2021/12/21 05:23:41;;;;;;;11.90;8.77;;;1.70;99.90;;;;;;5131561;28;20610;-49
2021/12/21 05:26:11;;;;;;;14.70;9.83;;;1.70;99.90;;;;;;5130896;28;20246;-50
2021/12/21 05:28:41;;;;;;;22.40;8.77;;;1.70;99.90;;;;;;5139173;28;20295;-51
2021/12/21 05:31:12;;;;;;;11.50;8.70;;;1.60;99.90;;;;;;5142459;28;20655;-50
2021/12/21 05:33:43;;;;;;;12.37;9.13;;;1.70;99.90;;;;;;5128996;28;20187;-51
2021/12/21 05:36:13;;;;;;;14.23;9.03;;;1.70;99.90;;;;;;5125736;28;21662;-49
2021/12/21 05:38:48;;;;;;;14.33;8.60;;;1.70;99.90;;;;;;5143655;28;20213;-50
2021/12/21 05:41:29;;;;;;;13.77;9.00;;;1.70;99.90;;;;;;5128902;28;20185;-51
2021/12/21 05:43:59;;;;;;;13.30;9.13;;;1.70;99.90;;;;;;5144749;28;20921;-50
2021/12/21 05:46:30;;;;;;;12.80;7.63;;;1.70;99.90;;;;;;5144588;28;20460;-50
2021/12/21 05:49:00;;;;;;;18.23;9.07;;;1.70;99.90;;;;;;5127372;28;20590;-50
2021/12/21 05:51:31;;;;;;;11.30;7.47;;;1.70;99.90;;;;;;5139700;28;20186;-50
2021/12/21 05:54:02;;;;;;;13.20;8.60;;;1.60;99.90;;;;;;5145070;28;20185;-51
2021/12/21 05:56:33;;;;;;;14.83;7.87;;;1.50;99.90;;;;;;5145126;28;20251;-51
2021/12/21 05:59:04;;;;;;;14.13;8.60;;;1.50;99.90;;;;;;5123775;28;21049;-51
2021/12/21 06:01:35;;;;;;;12.37;8.27;;;1.50;99.90;;;;;;5137337;28;20195;-53
2021/12/21 06:04:06;;;;;;;17.00;9.00;;;1.50;99.90;;;;;;5131981;28;21130;-51
2021/12/21 06:06:36;;;;;;;11.50;6.97;;;1.60;99.90;;;;;;5139345;28;20506;-50
2021/12/21 06:09:09;;;;;;;14.70;9.60;;;1.60;99.90;;;;;;5129114;28;20194;-50
2021/12/21 06:15:18;;;;;;;11.20;8.30;;;1.60;99.90;;;;;;5122716;28;20441;-50
2021/12/21 06:24:05;;;;;;;24.97;8.60;;;1.50;99.90;;;;;;5137401;28;20428;-49
2021/12/21 06:26:27;;;;;;;21.80;8.23;;;1.50;99.90;;;;;;5142068;28;21098;-50
2021/12/21 06:28:57;;;;;;;15.07;9.00;;;1.60;99.90;;;;;;5143420;28;20543;-51
2021/12/21 06:31:28;;;;;;;12.07;8.30;;;1.60;99.90;;;;;;5138530;28;20232;-51
2021/12/21 06:33:59;;;;;;;12.87;8.33;;;1.70;99.90;;;;;;5125536;28;20182;-50
2021/12/21 06:36:30;;;;;;;13.33;8.87;;;1.70;99.90;;;;;;5112358;28;20227;-50
2021/12/21 06:39:00;;;;;;;15.07;8.37;;;1.70;99.90;;;;;;5138321;28;20476;-53
2021/12/21 06:41:33;;;;;;;13.73;8.17;;;1.80;99.90;;;;;;5137784;28;20260;-53
2021/12/21 06:44:04;;;;;;;14.10;8.80;;;1.70;99.90;;;;;;5135945;28;20677;-50
2021/12/21 06:52:01;;;;;;;12.70;7.87;;;1.70;99.90;;;;;;5130865;28;20515;-49
2021/12/21 06:54:32;;;;;;;19.43;8.63;;;1.70;99.90;;;;;;5131356;28;20448;-50
2021/12/21 06:57:03;;;;;;;10.83;7.00;;;1.70;99.90;;;;;;5129659;28;20550;-52
2021/12/21 06:59:34;;;;;;;9.60;6.67;;;1.80;99.90;;;;;;5134639;28;20221;-54
2021/12/21 07:02:05;;;;;;;7.20;6.50;;;1.80;99.90;;;;;;5137391;28;20189;-51
2021/12/21 07:04:36;;;;;;;12.80;7.53;;;1.80;99.90;;;;;;5136581;28;20550;-51
2021/12/21 07:07:09;;;;;;;8.40;7.20;;;1.90;99.90;;;;;;5139425;28;20472;-53
2021/12/21 07:09:43;;;;;;;11.57;7.90;;;1.90;99.90;;;;;;5137411;28;20301;-51
2021/12/21 07:20:38;;;;;;;13.03;8.07;;;2.00;99.90;;;;;;5139453;28;20441;-51
2021/12/21 07:23:08;;;;;;;10.43;6.90;;;2.00;99.90;;;;;;5135178;28;20444;-53
2021/12/21 07:25:39;;;;;;;23.33;7.33;;;1.90;99.90;;;;;;5117526;28;20479;-53
2021/12/21 07:28:10;;;;;;;11.90;7.00;;;2.00;99.90;;;;;;5133770;28;21548;-51
2021/12/21 07:30:40;;;;;;;22.03;7.60;;;2.00;99.90;;;;;;5138541;28;20189;-51
2021/12/21 07:33:11;;;;;;;13.03;8.00;;;2.10;99.90;;;;;;5116213;28;20216;-50
2021/12/21 07:35:42;;;;;;;7.57;6.47;;;2.10;99.90;;;;;;5134635;28;20224;-51
2021/12/21 07:38:12;;;;;;;9.70;6.67;;;2.10;99.90;;;;;;5114935;28;20213;-52
2021/12/21 07:40:43;;;;;;;14.03;6.80;;;2.10;99.90;;;;;;5137637;28;20497;-53
2021/12/21 07:43:14;;;;;;;9.00;6.57;;;2.00;99.90;;;;;;5138339;28;20190;-52
2021/12/21 07:45:44;;;;;;;6.53;5.93;;;2.00;99.90;;;;;;5133412;28;20208;-51
2021/12/21 07:48:15;;;;;;;6.93;6.30;;;2.00;99.90;;;;;;5129661;28;20197;-52
2021/12/21 07:50:50;;;;;;;6.73;6.07;;;2.00;99.90;;;;;;5137036;28;20194;-52
2021/12/21 07:53:21;;;;;;;9.13;7.00;;;2.00;99.90;;;;;;5115605;28;20223;-54
2021/12/21 07:55:52;;;;;;;15.50;7.13;;;2.00;99.90;;;;;;5124954;28;20904;-50
2021/12/21 07:58:29;;;;;;;9.10;6.40;;;2.20;99.90;;;;;;5112506;28;20713;-52
2021/12/21 08:01:01;;;;;;;12.03;6.80;;;2.00;99.90;;;;;;5116677;28;20204;-52
2021/12/21 08:03:33;;;;;;;13.50;7.00;;;2.00;99.90;;;;;;5137465;28;20428;-51
2021/12/21 08:06:07;;;;;;;8.03;6.63;;;2.00;99.90;;;;;;5140483;28;21285;-51
2021/12/21 08:08:40;;;;;;;14.97;6.90;;;2.00;99.90;;;;;;5124642;28;20458;-52
2021/12/21 08:11:15;;;;;;;18.50;7.70;;;2.00;99.90;;;;;;5122765;28;20456;-51
2021/12/21 08:13:47;;;;;;;8.73;7.07;;;2.20;99.90;;;;;;5139181;28;20444;-52
2021/12/21 08:16:18;;;;;;;14.37;7.30;;;2.20;99.90;;;;;;5139030;28;20611;-53
2021/12/21 08:18:49;;;;;;;9.50;6.83;;;2.20;99.90;;;;;;5141191;28;21046;-52
2021/12/21 08:21:21;;;;;;;10.90;7.30;;;2.30;99.90;;;;;;5140689;28;20840;-52
2021/12/21 08:23:52;;;;;;;15.50;7.73;;;2.30;99.90;;;;;;5105371;28;20197;-51
2021/12/21 08:26:23;;;;;;;10.80;8.10;;;2.40;99.90;;;;;;5156918;23;20503;-51
2021/12/21 08:28:53;;;;;;;12.07;8.33;;;2.40;99.90;;;;;;5108459;28;20188;-51
2021/12/21 08:31:24;;;;;;;14.33;9.23;;;2.40;99.90;;;;;;5153650;28;20197;-51
2021/12/21 08:33:55;;;;;;;10.10;7.07;;;2.40;99.90;;;;;;5141469;28;20552;-50
2021/12/21 08:36:25;;;;;;;10.63;8.30;;;2.30;99.90;;;;;;5143387;28;20201;-49
2021/12/21 08:38:56;;;;;;;19.37;9.83;;;2.40;99.90;;;;;;5142556;28;20205;-51
2021/12/21 08:41:27;;;;;;;12.70;7.93;;;2.30;99.90;;;;;;5139207;28;20223;-52
2021/12/21 08:43:57;;;;;;;14.97;7.60;;;2.30;99.90;;;;;;5139689;28;20228;-50
2021/12/21 08:46:28;;;;;;;17.23;8.20;;;2.40;99.90;;;;;;5137144;28;20484;-49
2021/12/21 08:48:58;;;;;;;13.07;8.17;;;2.40;99.90;;;;;;5141586;28;20956;-51
2021/12/21 08:51:29;;;;;;;15.80;8.37;;;2.50;99.90;;;;;;5158693;28;20184;-50
2021/12/21 08:54:00;;;;;;;7.63;6.50;;;2.60;99.90;;;;;;5146439;28;20549;-51
2021/12/21 08:56:30;;;;;;;9.77;7.47;;;2.70;99.90;;;;;;5161238;28;20205;-50
2021/12/21 08:59:00;;;;;;;10.20;6.83;;;2.60;99.90;;;;;;5155432;28;20231;-53
2021/12/21 09:01:31;;;;;;;13.40;7.73;;;2.70;99.90;;;;;;5137825;28;20220;-52
2021/12/21 09:04:02;;;;;;;17.60;7.90;;;2.80;99.90;;;;;;5155365;28;20212;-52
2021/12/21 09:06:33;;;;;;;9.80;7.93;;;2.90;99.90;;;;;;5154721;28;20204;-50
2021/12/21 09:09:04;;;;;;;22.37;8.20;;;2.90;99.90;;;;;;5158021;28;20506;-50
2021/12/21 09:11:35;;;;;;;13.80;7.13;;;3.00;99.90;;;;;;5152075;28;20196;-50
2021/12/21 09:14:06;;;;;;;9.50;6.70;;;2.90;99.90;;;;;;5152944;28;20475;-50
2021/12/21 09:16:36;;;;;;;16.57;8.93;;;2.90;99.90;;;;;;5135115;28;20961;-50
2021/12/21 09:19:07;;;;;;;12.10;7.90;;;3.00;99.90;;;;;;5151767;28;21830;-50
2021/12/21 09:21:37;;;;;;;9.80;6.97;;;3.00;99.90;;;;;;5135516;28;20196;-51
2021/12/21 09:24:09;;;;;;;9.10;7.50;;;3.00;99.90;;;;;;5157012;28;20189;-51
2021/12/21 09:26:39;;;;;;;11.30;7.77;;;2.90;99.90;;;;;;5152758;28;20306;-51
2021/12/21 09:29:10;;;;;;;11.47;7.27;;;2.90;99.90;;;;;;5159127;28;20987;-51
2021/12/21 09:31:41;;;;;;;8.90;7.30;;;3.00;99.90;;;;;;5142533;28;20193;-50
2021/12/21 09:34:11;;;;;;;15.37;7.90;;;3.10;99.90;;;;;;5158272;28;20791;-51
2021/12/21 09:36:42;;;;;;;17.63;8.90;;;3.10;99.90;;;;;;5139314;28;20675;-51
2021/12/21 09:39:13;;;;;;;12.13;8.10;;;3.00;99.90;;;;;;5137856;28;20259;-50
2021/12/21 09:41:45;;;;;;;13.73;7.80;;;3.20;99.90;;;;;;5158269;28;20556;-50
2021/12/21 09:44:16;;;;;;;13.90;8.73;;;3.10;99.90;;;;;;5162585;28;20181;-50
2021/12/21 09:46:46;;;;;;;10.43;8.73;;;3.10;99.90;;;;;;5139704;28;20472;-51
2021/12/21 09:49:17;;;;;;;9.70;7.90;;;3.20;99.90;;;;;;5152030;28;20437;-52
2021/12/21 09:51:48;;;;;;;16.20;9.63;;;3.00;99.90;;;;;;5153239;28;21270;-50
2021/12/21 09:54:18;;;;;;;14.67;8.80;;;2.90;99.90;;;;;;5135579;28;20199;-50
2021/12/21 09:56:49;;;;;;;11.23;8.53;;;2.70;99.90;;;;;;5157747;28;20212;-49
2021/12/21 09:59:19;;;;;;;15.43;8.70;;;2.60;99.90;;;;;;5137250;28;20205;-51
2021/12/21 10:01:50;;;;;;;15.80;8.20;;;2.60;99.90;;;;;;5131389;28;20181;-52
2021/12/21 10:04:21;;;;;;;19.20;10.40;;;2.60;99.90;;;;;;5153143;28;20550;-51
2021/12/21 10:06:54;;;;;;;11.10;7.60;;;2.80;99.90;;;;;;5137603;28;20209;-50
2021/12/21 10:09:34;;;;;;;9.63;7.60;;;3.00;99.90;;;;;;5154523;28;20647;-49
2021/12/21 10:12:05;;;;;;;17.87;10.23;;;3.00;99.90;;;;;;5158983;28;20475;-50
2021/12/21 10:14:35;;;;;;;15.13;9.10;;;2.90;99.90;;;;;;5141212;28;20494;-51
2021/12/21 10:17:08;;;;;;;18.33;10.10;;;2.90;99.90;;;;;;5136694;28;20456;-52
2021/12/21 10:19:43;;;;;;;15.33;9.50;;;3.00;99.90;;;;;;5154529;28;20217;-50
2021/12/21 10:22:15;;;;;;;15.27;8.80;;;3.00;99.90;;;;;;5155497;28;20439;-50
2021/12/21 10:24:49;;;;;;;18.40;10.60;;;3.00;99.90;;;;;;5140848;28;20449;-51
2021/12/21 10:27:22;;;;;;;23.83;10.03;;;2.90;99.90;;;;;;5135602;28;21318;-50
2021/12/21 10:29:59;;;;;;;22.20;10.00;;;3.00;99.90;;;;;;5139887;28;20554;-50
2021/12/21 10:32:32;;;;;;;17.40;9.63;;;3.00;99.90;;;;;;5141399;28;20441;-50
2021/12/21 10:35:10;;;;;;;18.40;9.77;;;3.10;99.90;;;;;;5159479;28;20449;-51
2021/12/21 10:37:41;;;;;;;19.53;9.20;;;3.00;99.90;;;;;;5147455;28;20458;-50
2021/12/21 10:40:21;;;;;;;12.13;8.87;;;2.80;99.90;;;;;;5151548;28;20461;-51
2021/12/21 10:42:59;;;;;;;17.20;8.97;;;2.70;99.90;;;;;;5133187;28;23248;-48
2021/12/21 10:45:43;;;;;;;14.83;8.57;;;2.70;99.90;;;;;;5139905;28;20502;-50
2021/12/21 10:48:18;;;;;;;13.43;9.23;;;2.70;99.90;;;;;;5142236;28;20462;-49
2021/12/21 10:50:50;;;;;;;23.03;9.90;;;2.70;99.90;;;;;;5141261;28;20457;-51
2021/12/21 10:53:26;;;;;;;17.07;8.53;;;2.40;99.90;;;;;;5141551;28;20486;-50
2021/12/21 10:56:07;;;;;;;16.80;9.13;;;2.50;99.90;;;;;;5157995;28;20468;-48
2021/12/21 10:58:42;;;;;;;14.47;10.30;;;2.50;99.90;;;;;;5138992;28;20535;-53
2021/12/21 11:01:25;;;;;;;18.80;10.97;;;2.50;99.90;;;;;;5145008;28;20432;-49
2021/12/21 11:03:57;;;;;;;19.13;10.53;;;2.50;99.90;;;;;;5151581;28;20432;-51
2021/12/21 11:06:35;;;;;;;24.80;10.27;;;2.60;99.90;;;;;;5138346;28;20661;-50
2021/12/21 11:09:09;;;;;;;13.33;9.63;;;2.70;99.90;;;;;;5151439;28;20800;-50
2021/12/21 11:11:47;;;;;;;16.00;9.33;;;2.80;99.90;;;;;;5152312;28;21081;-52
2021/12/21 11:14:19;;;;;;;11.40;8.77;;;2.80;99.90;;;;;;5153046;28;20519;-51
2021/12/21 11:16:52;;;;;;;21.27;9.57;;;2.90;99.90;;;;;;5137977;28;20566;-50
2021/12/21 11:19:23;;;;;;;19.50;9.47;;;2.70;99.90;;;;;;5136567;28;20518;-51
2021/12/21 11:21:56;;;;;;;26.53;10.20;;;2.60;99.90;;;;;;5141064;28;20443;-50
2021/12/21 11:24:29;;;;;;;18.67;9.77;;;2.60;99.90;;;;;;5135584;28;20494;-50
2021/12/21 11:27:02;;;;;;;19.13;9.77;;;2.60;99.90;;;;;;5157189;28;20859;-51
2021/12/21 11:29:36;;;;;;;15.77;8.80;;;2.80;99.90;;;;;;5156821;28;20443;-50
2021/12/21 11:32:08;;;;;;;22.00;12.37;;;2.90;99.90;;;;;;5152749;28;20827;-51
2021/12/21 11:34:58;;;;;;;14.73;9.33;;;3.00;99.90;;;;;;5151140;28;20444;-51
2021/12/21 11:37:31;;;;;;;20.30;9.40;;;2.90;99.90;;;;;;5133426;28;20460;-49
2021/12/21 11:40:01;;;;;;;14.83;9.63;;;3.00;99.90;;;;;;5155117;28;20488;-51
2021/12/21 11:42:50;;;;;;;17.60;9.73;;;2.80;99.90;;;;;;5136829;28;20433;-52
2021/12/21 11:45:32;;;;;;;21.50;8.63;;;2.80;99.90;;;;;;5137018;28;20928;-49
2021/12/21 11:48:09;;;;;;;14.97;10.37;;;2.90;99.90;;;;;;5137530;28;20440;-51
2021/12/21 11:50:45;;;;;;;18.20;8.73;;;2.70;99.90;;;;;;5155091;28;20440;-48
2021/12/21 11:53:18;;;;;;;13.23;9.17;;;2.60;99.90;;;;;;5140059;28;20446;-50
2021/12/21 11:55:50;;;;;;;12.20;7.67;;;2.70;99.90;;;;;;5149929;28;20452;-50
2021/12/21 11:58:27;;;;;;;17.43;9.70;;;2.70;99.90;;;;;;5138325;28;20452;-50
2021/12/21 12:01:03;;;;;;;16.37;9.47;;;2.70;99.90;;;;;;5138985;28;20479;-49
2021/12/21 12:03:38;;;;;;;17.07;8.20;;;2.70;99.90;;;;;;5152060;28;20864;-51
2021/12/21 12:06:14;;;;;;;17.10;9.17;;;2.80;99.90;;;;;;5148131;28;20889;-51
2021/12/21 12:08:49;;;;;;;27.97;14.00;;;2.90;99.90;;;;;;5151073;28;20787;-50
2021/12/21 12:11:35;;;;;;;14.77;9.40;;;2.80;99.90;;;;;;5150113;28;20439;-50
2021/12/21 12:14:08;;;;;;;17.20;8.43;;;2.90;99.90;;;;;;5137518;28;20759;-50
2021/12/21 12:16:48;;;;;;;14.20;8.87;;;3.00;99.90;;;;;;5141770;28;20506;-51
2021/12/21 12:19:21;;;;;;;17.57;9.63;;;2.90;99.90;;;;;;5138164;28;20452;-51
2021/12/21 12:22:07;;;;;;;18.93;8.60;;;2.90;99.90;;;;;;5153423;28;20531;-50
2021/12/21 12:24:40;;;;;;;16.43;8.70;;;2.70;99.90;;;;;;5148374;28;20535;-49
2021/12/21 12:27:16;;;;;;;21.97;9.40;;;2.60;99.90;;;;;;5154826;28;20562;-49
2021/12/21 12:29:52;;;;;;;15.27;8.60;;;2.40;99.90;;;;;;5138190;28;20940;-49
2021/12/21 12:32:35;;;;;;;14.40;7.60;;;2.30;99.90;;;;;;5156314;28;20467;-50
2021/12/21 12:35:12;;;;;;;8.90;6.80;;;2.20;99.90;;;;;;5124747;28;20459;-49
2021/12/21 12:38:17;;;;;;;14.40;7.47;;;2.20;99.90;;;;;;5158660;28;20479;-48
2021/12/21 12:40:52;;;;;;;9.90;7.53;;;2.30;99.90;;;;;;5157253;28;20444;-49
2021/12/21 12:43:28;;;;;;;13.80;7.87;;;2.40;99.90;;;;;;5143328;28;20522;-51
2021/12/21 12:46:06;;;;;;;15.27;9.90;;;2.50;99.90;;;;;;5156029;28;20454;-50
2021/12/21 12:48:47;;;;;;;12.30;8.63;;;2.60;99.90;;;;;;5140480;28;20459;-50
2021/12/21 12:51:32;;;;;;;15.00;9.17;;;2.60;99.90;;;;;;5144130;28;20432;-50
2021/12/21 12:54:17;;;;;;;43.57;20.67;;;2.60;99.90;;;;;;5155991;28;20448;-49
2021/12/21 12:56:49;;;;;;;22.53;11.70;;;2.50;99.90;;;;;;5154447;28;20444;-50
2021/12/21 12:59:20;;;;;;;12.43;9.30;;;2.60;99.90;;;;;;5157137;28;20498;-50
2021/12/21 13:01:53;;;;;;;13.00;7.57;;;2.60;99.90;;;;;;5136118;28;20534;-50
2021/12/21 13:04:23;;;;;;;13.87;8.07;;;2.70;99.90;;;;;;5141769;28;20299;-50
2021/12/21 13:06:54;;;;;;;14.50;8.47;;;2.60;99.90;;;;;;5139701;28;20466;-52
2021/12/21 13:09:24;;;;;;;13.53;7.40;;;2.60;99.90;;;;;;5141544;28;20222;-51
2021/12/21 13:11:55;;;;;;;18.33;8.33;;;2.60;99.90;;;;;;5158887;28;20181;-51
2021/12/21 13:14:25;;;;;;;13.60;7.30;;;2.50;99.90;;;;;;5158306;28;20271;-50
2021/12/21 13:16:57;;;;;;;10.00;7.90;;;2.50;99.90;;;;;;5151862;28;20292;-53
2021/12/21 13:19:30;;;;;;;18.50;9.50;;;2.50;99.90;;;;;;5143640;28;20209;-50
2021/12/21 13:22:02;;;;;;;32.93;16.53;;;2.40;99.90;;;;;;5157687;28;20448;-50
2021/12/21 13:24:35;;;;;;;27.67;12.37;;;2.40;99.90;;;;;;5157182;28;20440;-51
2021/12/21 13:27:12;;;;;;;31.93;13.90;;;2.40;99.90;;;;;;5155022;28;20509;-49
2021/12/21 13:29:43;;;;;;;11.30;6.80;;;2.40;99.90;;;;;;5151588;28;20471;-51
2021/12/21 13:32:17;;;;;;;9.87;7.23;;;2.30;99.90;;;;;;5153849;28;20790;-50
2021/12/21 13:34:53;;;;;;;19.17;8.87;;;2.20;99.90;;;;;;5156868;28;20211;-49
2021/12/21 13:37:24;;;;;;;11.47;8.30;;;2.20;99.90;;;;;;5135880;28;20462;-49
2021/12/21 13:39:57;;;;;;;12.80;8.37;;;2.20;99.90;;;;;;5150386;28;20480;-51
2021/12/21 13:42:28;;;;;;;14.50;8.60;;;2.20;99.90;;;;;;5152380;28;20406;-52
2021/12/21 13:45:02;;;;;;;24.83;11.40;;;2.10;99.90;;;;;;5137717;28;20432;-51
2021/12/21 13:47:43;;;;;;;25.90;10.17;;;2.10;99.90;;;;;;5147455;28;20436;-49
2021/12/21 13:50:25;;;;;;;17.80;9.87;;;2.10;99.90;;;;;;5153163;28;20460;-52
2021/12/21 13:52:58;;;;;;;20.20;10.43;;;2.20;99.90;;;;;;5150832;28;20452;-49
2021/12/21 13:55:36;;;;;;;17.00;11.23;;;2.10;99.90;;;;;;5152384;28;20553;-51
2021/12/21 13:58:12;;;;;;;16.53;9.77;;;2.00;99.90;;;;;;5153749;28;20563;-51
2021/12/21 14:00:46;;;;;;;19.03;10.40;;;2.00;99.90;;;;;;5136715;28;20956;-51
2021/12/21 14:03:27;;;;;;;20.77;11.27;;;2.00;99.90;;;;;;5151529;28;20436;-50
2021/12/21 14:06:08;;;;;;;16.57;9.50;;;2.00;99.90;;;;;;5153086;28;20472;-50
2021/12/21 14:08:43;;;;;;;24.33;12.90;;;1.90;99.90;;;;;;5135837;28;20576;-50
2021/12/21 14:11:14;;;;;;;14.97;9.73;;;1.90;99.90;;;;;;5141318;28;20811;-52
2021/12/21 14:13:48;;;;;;;13.83;9.03;;;1.90;99.90;;;;;;5156391;28;20450;-49
2021/12/21 14:16:24;;;;;;;22.40;9.00;;;1.90;99.90;;;;;;5134127;28;20626;-52